Time;durP1;ratioP1;P1;durP2;ratioP2;P2;SDS_P1;SDS_P2;PMS_P1;PMS_P2;Temp;Humidity;BMP_temperature;BMP_pressure;BME280_temperature;BME280_humidity;BME280_pressure;Samples;Min_cycle;Max_cycle;Signal;HPM_P1;HPM_P2
2022/06/11 00:16:11;;;;;;;2.20;2.00;;;;;;;17.49;72.16;97310.03;6161134;23;20182;-93
2022/06/11 00:24:25;;;;;;;2.13;1.97;;;;;;;16.58;71.84;97141.97;6163730;23;20230;-94
2022/06/11 00:40:28;;;;;;;2.03;1.90;;;;;;;17.88;72.01;97403.16;6107222;23;20253;-93
2022/06/11 01:19:19;;;;;;;2.03;1.83;;;;;;;16.91;71.99;97196.66;6156373;23;20218;-93
2022/06/11 01:22:03;;;;;;;2.10;1.90;;;;;;;21.09;72.20;97898.69;6010674;24;20158;-94
2022/06/11 01:24:49;;;;;;;2.07;1.80;;;;;;;21.02;72.08;97902.72;6121181;23;20194;-93
2022/06/11 01:27:42;;;;;;;2.33;2.10;;;;;;;22.10;72.33;98079.81;6154935;23;20191;-94
2022/06/11 01:36:04;;;;;;;2.40;2.20;;;;;;;22.10;72.46;98076.38;6107203;23;20171;-93
2022/06/11 01:39:45;;;;;;;2.53;1.87;;;;;;;17.68;71.87;97325.25;6151644;23;20185;-92
2022/06/11 01:59:12;;;;;;;1.70;1.60;;;;;;;22.10;72.19;98078.94;6170658;23;20163;-93
2022/06/11 02:02:22;;;;;;;1.73;1.63;;;;;;;22.09;72.26;98074.66;6100049;23;20143;-93
2022/06/11 02:07:58;;;;;;;1.73;1.63;;;;;;;22.08;72.30;98068.66;6157471;23;20168;-93
2022/06/11 02:15:26;;;;;;;1.83;1.73;;;;;;;19.06;71.83;97548.84;6145564;23;20209;-92
2022/06/11 02:18:28;;;;;;;2.00;1.90;;;;;;;17.68;72.01;97318.47;6160465;23;20226;-93
2022/06/11 02:29:05;;;;;;;2.47;1.70;;;;;;;18.04;71.88;97395.38;6185739;23;20159;-94
2022/06/11 02:37:52;;;;;;;1.80;1.70;;;;;;;17.01;71.42;97217.41;6158890;23;20182;-92
2022/06/11 02:43:19;;;;;;;1.63;1.53;;;;;;;20.92;72.09;97920.16;6153488;23;20166;-93
2022/06/11 02:45:49;;;;;;;2.10;1.90;;;;;;;17.85;71.95;97420.81;6131574;23;20179;-92
2022/06/11 02:51:37;;;;;;;1.80;1.70;;;;;;;21.21;72.25;97942.59;6181741;23;20172;-92
2022/06/11 02:54:17;;;;;;;2.27;1.90;;;;;;;18.06;71.93;97406.50;6162360;23;20177;-93
2022/06/11 03:02:34;;;;;;;2.10;1.70;;;;;;;19.18;71.91;97651.22;6166716;23;20170;-93
2022/06/11 03:08:04;;;;;;;1.80;1.70;;;;;;;20.44;71.91;97869.75;6176043;23;20173;-93
2022/06/11 03:13:27;;;;;;;2.20;2.00;;;;;;;19.16;71.77;97619.75;6181608;23;20159;-92
2022/06/11 03:16:08;;;;;;;1.83;1.73;;;;;;;17.67;71.88;97371.78;6130628;23;20192;-94
2022/06/11 03:18:48;;;;;;;1.60;1.50;;;;;;;16.50;71.73;97145.81;6119750;23;20170;-93
2022/06/11 03:21:18;;;;;;;1.80;1.70;;;;;;;16.69;71.62;97216.88;6064808;23;20208;-93
2022/06/11 03:26:34;;;;;;;2.00;1.73;;;;;;;19.10;71.82;97662.78;6121903;23;20190;-94
2022/06/11 03:29:18;;;;;;;1.80;1.70;;;;;;;19.18;71.84;97633.38;6091689;23;20150;-94
2022/06/11 03:37:09;;;;;;;1.90;1.80;;;;;;;17.11;71.67;97266.91;6155579;23;20166;-93
2022/06/11 03:39:51;;;;;;;1.80;1.70;;;;;;;17.81;71.63;97434.22;6141005;23;20153;-93
2022/06/11 03:42:18;;;;;;;1.70;1.60;;;;;;;18.91;71.76;97614.44;6112561;23;20139;-94
2022/06/11 03:55:29;;;;;;;1.70;1.60;;;;;;;22.09;72.04;98142.09;6074273;23;20161;-93
2022/06/11 03:58:09;;;;;;;1.73;1.63;;;;;;;19.00;71.60;97668.31;6026927;23;20161;-94
2022/06/11 04:03:25;;;;;;;2.67;1.90;;;;;;;20.92;71.97;97964.47;6030378;23;20150;-93
2022/06/11 04:06:40;;;;;;;2.00;1.90;;;;;;;17.64;71.81;97404.69;6006034;23;20149;-93
2022/06/11 04:09:53;;;;;;;1.53;1.43;;;;;;;19.19;71.92;97650.44;6046631;23;20145;-93
2022/06/11 04:12:39;;;;;;;1.80;1.70;;;;;;;17.07;71.64;97286.22;6069715;23;20149;-93
2022/06/11 04:25:53;;;;;;;1.77;1.67;;;;;;;17.05;72.02;97317.44;6168101;23;20230;-93
2022/06/11 04:28:44;;;;;;;1.80;1.70;;;;;;;18.47;71.54;97574.44;6121346;23;20143;-93
2022/06/11 04:34:07;;;;;;;1.93;1.73;;;;;;;16.76;71.57;97269.59;6164177;23;20241;-92
2022/06/11 04:36:35;;;;;;;1.70;1.60;;;;;;;19.04;71.46;97649.81;6127296;23;20191;-93
2022/06/11 04:39:03;;;;;;;7.10;1.60;;;;;;;18.96;71.99;97677.50;6104398;23;20206;-91
2022/06/11 04:41:32;;;;;;;1.77;1.67;;;;;;;19.10;71.58;97683.19;6104645;23;20198;-93
2022/06/11 04:44:05;;;;;;;1.77;1.67;;;;;;;18.92;71.94;97628.94;6105420;23;20155;-91
2022/06/11 04:46:35;;;;;;;1.50;1.40;;;;;;;17.81;71.82;97442.72;6104085;23;20209;-92
2022/06/11 04:49:08;;;;;;;2.07;1.80;;;;;;;19.06;71.75;97686.38;6128744;23;20155;-91
2022/06/11 04:51:34;;;;;;;1.80;1.70;;;;;;;19.54;71.88;97775.09;6104459;23;20234;-91
2022/06/11 04:54:05;;;;;;;1.80;1.70;;;;;;;18.68;71.66;97621.13;6098549;23;20159;-93
2022/06/11 04:56:31;;;;;;;1.67;1.57;;;;;;;16.70;71.60;97249.03;6099144;23;20171;-90
2022/06/11 04:58:58;;;;;;;1.60;1.50;;;;;;;18.92;72.10;97628.94;6099071;23;20211;-91
2022/06/11 05:01:32;;;;;;;1.60;1.50;;;;;;;19.16;72.04;97668.16;6078829;23;20205;-91
2022/06/11 05:03:58;;;;;;;2.87;1.40;;;;;;;17.73;71.75;97455.91;6099720;23;20206;-92
2022/06/11 05:06:31;;;;;;;1.80;1.70;;;;;;;19.06;71.89;97661.78;6098785;23;20197;-92
2022/06/11 05:09:01;;;;;;;1.70;1.60;;;;;;;17.44;71.70;97428.38;6076969;23;20222;-91
2022/06/11 05:11:28;;;;;;;1.80;1.70;;;;;;;19.04;71.79;97673.59;6078490;23;20173;-91
2022/06/11 05:13:57;;;;;;;2.03;1.60;;;;;;;18.99;71.55;97647.06;6102625;23;20179;-92
2022/06/11 05:16:24;;;;;;;1.70;1.60;;;;;;;18.77;72.05;97625.75;6077521;23;20179;-90
2022/06/11 05:19:07;;;;;;;1.60;1.50;;;;;;;19.08;71.80;97674.59;6078911;23;20282;-91
2022/06/11 05:21:35;;;;;;;1.87;1.77;;;;;;;17.80;71.66;97433.34;6124928;23;20159;-90
2022/06/11 05:24:02;;;;;;;1.77;1.67;;;;;;;18.71;72.00;97600.03;6077562;23;20170;-91
2022/06/11 05:26:59;;;;;;;2.33;1.90;;;;;;;19.10;71.82;97683.19;6079763;23;20178;-90
2022/06/11 05:29:37;;;;;;;1.83;1.73;;;;;;;21.06;71.83;98004.25;6102934;23;20170;-90
2022/06/11 05:32:04;;;;;;;1.70;1.60;;;;;;;19.27;72.06;97753.56;6150376;23;20803;-90
2022/06/11 05:34:43;;;;;;;1.87;1.77;;;;;;;19.09;71.83;97676.31;6127066;23;20198;-90
2022/06/11 05:37:12;;;;;;;1.83;1.70;;;;;;;17.74;72.07;97444.94;6079379;23;20238;-91
2022/06/11 05:39:49;;;;;;;1.70;1.60;;;;;;;18.65;71.81;97602.34;6125689;23;20179;-91
2022/06/11 05:42:26;;;;;;;1.90;1.80;;;;;;;22.03;72.69;98182.81;6081407;23;20177;-90
2022/06/11 05:45:20;;;;;;;;;;;;;;;;;;;;;
2022/06/11 05:47:58;;;;;;;2.57;1.90;;;;;;;18.17;71.80;97535.81;6113665;23;20162;-90
2022/06/11 05:50:43;;;;;;;1.70;1.60;;;;;;;19.01;72.16;97693.00;6106865;23;20194;-90
2022/06/11 05:53:29;;;;;;;2.17;1.97;;;;;;;17.72;71.74;97455.06;6127476;23;20147;-90
2022/06/11 05:55:59;;;;;;;2.07;1.97;;;;;;;19.62;72.19;97777.13;6103202;23;20186;-89
2022/06/11 05:58:45;;;;;;;2.10;2.00;;;;;;;18.92;71.85;97682.41;6104555;23;20195;-91
2022/06/11 06:01:22;;;;;;;2.57;2.03;;;;;;;17.93;72.11;97491.56;6102692;23;20199;-91
2022/06/11 06:04:00;;;;;;;1.90;1.80;;;;;;;17.11;71.75;97381.16;6105814;23;20177;-91
2022/06/11 06:06:46;;;;;;;2.00;1.80;;;;;;;20.65;71.80;97962.50;6080598;23;20179;-91
2022/06/11 06:09:36;;;;;;;2.63;1.77;;;;;;;20.83;72.11;97984.56;6100865;23;20171;-92
2022/06/11 06:17:46;;;;;;;2.17;1.80;;;;;;;19.10;71.86;97698.47;6171588;23;20202;-92
2022/06/11 06:20:35;;;;;;;1.87;1.77;;;;;;;18.80;71.34;97613.16;6138633;23;20158;-91
2022/06/11 06:23:20;;;;;;;2.47;2.13;;;;;;;18.95;71.98;97674.91;6109006;23;20190;-89
2022/06/11 06:25:59;;;;;;;2.13;2.03;;;;;;;18.48;71.68;97582.94;6129629;23;20872;-89
2022/06/11 06:28:27;;;;;;;1.97;1.87;;;;;;;21.39;71.70;98073.69;6127380;23;20227;-91
2022/06/11 06:30:58;;;;;;;1.97;1.87;;;;;;;17.07;71.25;97347.16;6127761;23;20203;-91
2022/06/11 06:33:27;;;;;;;2.00;1.90;;;;;;;19.00;71.54;97668.31;6104337;23;20171;-90
2022/06/11 06:36:16;;;;;;;1.90;1.80;;;;;;;16.51;71.15;97239.75;6083930;23;20195;-92
2022/06/11 06:39:15;;;;;;;2.27;2.00;;;;;;;18.96;71.61;97690.25;6093643;23;20235;-90
2022/06/11 07:08:50;;;;;;;2.30;2.10;;;;;;;17.72;71.75;97447.44;6170936;23;20186;-92
2022/06/11 07:11:17;;;;;;;2.13;2.00;;;;;;;17.84;71.87;97496.25;6109203;23;20637;-92
2022/06/11 07:13:55;;;;;;;2.43;2.10;;;;;;;19.14;71.81;97757.25;6138323;23;20146;-93
2022/06/11 07:43:33;;;;;;;2.40;2.20;;;;;;;16.89;71.60;97348.88;6173656;23;20190;-93
2022/06/11 07:51:24;;;;;;;4.67;2.50;;;;;;;19.05;71.70;97669.38;6182519;23;20178;-92
2022/06/11 07:53:54;;;;;;;3.67;2.10;;;;;;;17.81;71.96;97475.78;6135248;23;20190;-92
2022/06/11 08:04:34;;;;;;;2.60;2.40;;;;;;;17.39;71.71;97391.72;6154364;23;20163;-93
2022/06/11 08:07:01;;;;;;;2.23;2.03;;;;;;;20.01;71.58;97838.22;6106467;23;20179;-90
2022/06/11 08:12:03;;;;;;;2.43;2.23;;;;;;;18.23;71.68;97520.81;6174776;23;20189;-90
2022/06/11 08:19:50;;;;;;;2.57;2.37;;;;;;;18.93;71.88;97651.03;6172824;23;20186;-91
2022/06/11 08:22:31;;;;;;;2.60;2.40;;;;;;;17.63;71.87;97438.53;6118541;23;20206;-93
2022/06/11 08:25:11;;;;;;;2.43;2.23;;;;;;;20.20;72.43;97884.97;6120445;23;20218;-91
2022/06/11 08:30:48;;;;;;;3.63;2.73;;;;;;;21.48;72.25;98080.03;6153647;23;20178;-93
2022/06/11 08:33:15;;;;;;;2.83;1.90;;;;;;;16.75;71.76;97300.84;6123363;23;20239;-90
2022/06/11 08:35:42;;;;;;;4.10;2.40;;;;;;;16.41;71.51;97257.88;6080317;23;20191;-92
2022/06/11 08:38:23;;;;;;;2.80;2.47;;;;;;;17.28;71.73;97350.59;6110693;23;20183;-94
2022/06/11 08:46:22;;;;;;;2.73;2.10;;;;;;;18.19;71.92;97552.03;6184292;23;20173;-94
2022/06/11 08:49:04;;;;;;;3.17;2.40;;;;;;;22.12;71.96;98190.84;6135208;23;20189;-91
2022/06/11 08:54:16;;;;;;;6.20;2.60;;;;;;;20.81;71.91;98000.66;6134089;23;20193;-91
2022/06/11 08:56:59;;;;;;;3.00;2.73;;;;;;;21.03;71.77;97999.03;6137165;23;20191;-93
2022/06/11 09:04:50;;;;;;;2.43;2.23;;;;;;;22.11;72.11;98178.84;6164102;23;20186;-93
2022/06/11 09:15:31;;;;;;;2.50;2.30;;;;;;;20.90;72.09;97980.56;6179439;23;20186;-94
2022/06/11 09:18:20;;;;;;;2.67;2.47;;;;;;;22.11;72.16;98170.31;6138266;23;20191;-93
2022/06/11 09:20:53;;;;;;;2.40;2.20;;;;;;;22.11;72.15;98168.59;6129726;23;20170;-93
2022/06/11 09:23:41;;;;;;;4.03;2.53;;;;;;;22.10;72.36;98169.41;6129735;23;20178;-94
2022/06/11 09:29:00;;;;;;;3.93;2.40;;;;;;;22.11;72.07;98172.88;6182329;23;20265;-93
2022/06/11 09:31:30;;;;;;;3.20;2.40;;;;;;;22.10;72.40;98164.31;6134505;23;20139;-93
2022/06/11 09:34:19;;;;;;;5.80;2.10;;;;;;;21.07;72.08;98040.88;6159200;23;20150;-94
2022/06/11 09:36:58;;;;;;;2.43;2.20;;;;;;;22.11;72.06;98166.03;6130684;23;20178;-92
2022/06/11 09:42:31;;;;;;;4.20;2.33;;;;;;;22.12;71.97;98160.13;6175628;23;20186;-93
2022/06/11 09:47:41;;;;;;;2.83;2.53;;;;;;;20.22;71.76;97828.91;6161589;23;20198;-92
2022/06/11 09:50:22;;;;;;;2.70;2.50;;;;;;;22.13;72.02;98166.09;6136639;23;20210;-93
2022/06/11 09:53:15;;;;;;;4.03;2.53;;;;;;;20.49;71.96;97878.47;6123931;23;20175;-93
2022/06/11 09:56:06;;;;;;;2.93;2.20;;;;;;;19.30;71.80;97733.31;6142085;23;20214;-93
2022/06/11 10:01:20;;;;;;;2.60;2.40;;;;;;;19.15;72.22;97671.47;6170955;23;20241;-91
2022/06/11 10:04:19;;;;;;;2.43;2.23;;;;;;;19.35;71.72;97696.13;6134650;23;20170;-95
2022/06/11 10:06:52;;;;;;;2.50;2.30;;;;;;;19.40;72.18;97733.75;6123236;23;20242;-92
2022/06/11 10:09:22;;;;;;;3.20;2.57;;;;;;;22.12;72.04;98160.13;6081620;23;20218;-94
2022/06/11 10:12:11;;;;;;;2.50;2.30;;;;;;;19.16;71.92;97647.75;6105196;23;20187;-93
2022/06/11 10:14:47;;;;;;;2.20;2.00;;;;;;;21.96;72.18;98133.91;6128793;23;20155;-93
2022/06/11 10:17:28;;;;;;;2.83;2.40;;;;;;;18.07;71.92;97444.69;6129387;23;20146;-91
2022/06/11 10:23:10;;;;;;;2.50;2.30;;;;;;;22.12;72.07;98164.34;6148218;23;20217;-92
2022/06/11 10:31:08;;;;;;;2.67;2.20;;;;;;;17.98;71.67;97509.53;6151348;23;20189;-94
2022/06/11 10:37:02;;;;;;;2.50;2.30;;;;;;;22.13;71.89;98150.72;6152621;23;20182;-93
2022/06/11 10:39:47;;;;;;;2.43;1.97;;;;;;;22.12;71.90;98144.75;6129473;23;20194;-91
2022/06/11 10:45:12;;;;;;;3.10;2.10;;;;;;;17.22;72.08;97308.84;6172552;23;20253;-91
2022/06/11 10:50:47;;;;;;;2.30;2.10;;;;;;;21.35;72.00;98043.72;6178891;23;20258;-94
2022/06/11 10:53:39;;;;;;;4.37;2.10;;;;;;;17.94;71.85;97419.56;6129913;23;20187;-90
2022/06/11 11:13:02;;;;;;;2.83;2.40;;;;;;;20.89;72.20;97917.50;6155604;23;20181;-92
2022/06/11 11:15:37;;;;;;;2.40;2.20;;;;;;;19.22;71.75;97640.38;6144889;23;20214;-91
2022/06/11 11:18:19;;;;;;;2.97;2.50;;;;;;;20.89;72.23;97964.34;6160721;23;20185;-92
2022/06/11 11:20:49;;;;;;;2.97;1.93;;;;;;;17.85;72.13;97434.41;6159933;23;20181;-92
2022/06/11 11:23:38;;;;;;;2.57;2.20;;;;;;;17.98;71.65;97421.44;6185664;23;20166;-91
2022/06/11 11:26:20;;;;;;;2.53;2.33;;;;;;;22.14;71.97;98126.91;6139161;23;20198;-92
2022/06/11 11:29:15;;;;;;;2.37;2.17;;;;;;;19.51;71.86;97667.91;6159939;23;20190;-89
2022/06/11 11:31:49;;;;;;;2.37;2.10;;;;;;;18.38;72.12;97507.88;6136600;23;20150;-90
2022/06/11 11:34:21;;;;;;;2.40;2.20;;;;;;;19.71;72.15;97752.00;6159265;23;20147;-93
2022/06/11 11:36:47;;;;;;;2.50;2.30;;;;;;;17.80;71.63;97429.97;6159698;23;20220;-92
2022/06/11 11:44:51;;;;;;;2.73;2.53;;;;;;;16.21;71.78;97107.38;6180981;23;20182;-94
2022/06/11 11:47:38;;;;;;;2.10;2.00;;;;;;;17.20;71.83;97264.75;6112909;23;20214;-90
2022/06/11 11:50:11;;;;;;;2.90;2.60;;;;;;;22.13;72.17;98122.56;6139409;23;20170;-92
2022/06/11 11:52:45;;;;;;;2.10;2.00;;;;;;;19.15;71.92;97618.84;6159473;23;20154;-93
2022/06/11 11:55:19;;;;;;;2.30;2.10;;;;;;;19.79;71.95;97712.41;6134716;23;20198;-92
2022/06/11 11:58:28;;;;;;;2.63;2.10;;;;;;;18.81;71.74;97558.88;6122792;23;20215;-94
2022/06/11 12:01:00;;;;;;;2.67;2.40;;;;;;;22.15;72.07;98115.81;6125487;23;20180;-92
2022/06/11 12:09:32;;;;;;;2.47;2.27;;;;;;;19.46;72.30;97689.78;6178330;23;20186;-91
2022/06/11 12:12:08;;;;;;;2.40;2.20;;;;;;;22.13;72.16;98096.97;6159308;23;20193;-94
2022/06/11 12:14:45;;;;;;;2.37;2.17;;;;;;;19.79;72.06;97696.22;6159171;23;20158;-93
2022/06/11 12:17:24;;;;;;;3.07;2.50;;;;;;;18.30;71.84;97460.03;6111570;23;20187;-90
2022/06/11 12:19:56;;;;;;;2.40;2.20;;;;;;;19.34;71.97;97658.72;6037551;23;20187;-94
2022/06/11 12:22:29;;;;;;;2.40;2.17;;;;;;;21.10;72.13;97941.31;6105773;23;20171;-93
2022/06/11 12:24:56;;;;;;;2.47;2.27;;;;;;;19.50;72.17;97666.16;6127731;23;20219;-91
2022/06/11 12:27:54;;;;;;;2.37;2.27;;;;;;;17.08;71.83;97254.09;6100930;23;20184;-93
2022/06/11 12:30:25;;;;;;;3.53;2.23;;;;;;;18.48;71.93;97483.69;6124950;23;20152;-94
2022/06/11 12:35:49;;;;;;;2.47;2.27;;;;;;;17.85;72.19;97363.25;6170419;23;20265;-93
2022/06/11 12:38:50;;;;;;;2.87;2.10;;;;;;;18.10;71.91;97424.47;6159577;23;20155;-94
2022/06/11 12:41:41;;;;;;;2.23;2.10;;;;;;;22.13;72.39;98089.28;6184262;23;20184;-91
2022/06/11 12:46:46;;;;;;;2.30;2.10;;;;;;;22.14;72.25;98091.06;6180044;23;20249;-94
2022/06/11 12:52:32;;;;;;;2.27;2.10;;;;;;;19.00;71.79;97549.47;6124857;23;20223;-94
2022/06/11 12:55:24;;;;;;;2.40;2.20;;;;;;;22.14;72.11;98083.38;6107568;23;20188;-93
2022/06/11 12:58:51;;;;;;;2.63;2.10;;;;;;;18.62;71.87;97467.31;6124956;23;20144;-94
2022/06/11 13:01:46;;;;;;;2.40;2.20;;;;;;;22.14;71.98;98078.25;6124846;23;20190;-92
2022/06/11 13:04:44;;;;;;;4.10;2.27;;;;;;;22.14;72.18;98079.09;6123493;23;20465;-93
2022/06/11 13:07:45;;;;;;;4.00;2.20;;;;;;;19.95;72.16;97703.63;6177947;23;20195;-92
2022/06/11 13:12:53;;;;;;;2.83;2.13;;;;;;;22.14;72.29;98070.56;6172699;23;20204;-92
2022/06/11 13:15:57;;;;;;;2.47;2.37;;;;;;;22.13;72.32;98079.06;6158508;23;20182;-93
2022/06/11 13:18:44;;;;;;;2.00;1.90;;;;;;;18.10;72.19;97391.41;6160657;23;20150;-92
2022/06/11 13:21:38;;;;;;;2.50;2.30;;;;;;;19.06;72.21;97536.09;6135263;23;20167;-90
2022/06/11 13:24:40;;;;;;;2.10;2.00;;;;;;;22.13;72.50;98068.81;6112380;23;20189;-92
2022/06/11 13:27:33;;;;;;;2.30;2.20;;;;;;;22.12;72.42;98065.41;6158934;23;20163;-92
2022/06/11 13:29:59;;;;;;;2.57;2.30;;;;;;;22.13;72.38;98066.25;6160477;23;20157;-93
2022/06/11 13:38:14;;;;;;;2.60;2.40;;;;;;;22.13;72.24;98054.34;6183498;23;20166;-93
2022/06/11 13:41:35;;;;;;;2.07;1.97;;;;;;;20.94;72.14;97853.00;6160665;23;20185;-92
2022/06/11 13:44:38;;;;;;;2.70;2.50;;;;;;;22.14;72.21;98061.19;6158363;23;20154;-93
2022/06/11 13:47:17;;;;;;;2.87;2.37;;;;;;;19.03;72.00;97530.88;6153290;23;20182;-92
2022/06/11 13:49:59;;;;;;;3.13;2.10;;;;;;;22.15;72.24;98051.81;6167448;23;20185;-92
2022/06/11 13:55:53;;;;;;;2.30;2.10;;;;;;;19.07;72.27;97559.09;6166950;23;20197;-94
2022/06/11 13:58:39;;;;;;;2.50;2.30;;;;;;;22.14;72.31;98050.09;6110725;23;20214;-95
2022/06/11 14:01:25;;;;;;;2.50;2.30;;;;;;;22.14;72.44;98047.53;6134391;23;20165;-93
2022/06/11 14:04:18;;;;;;;2.10;2.00;;;;;;;22.12;72.43;98039.81;6158447;23;20150;-92
2022/06/11 14:06:45;;;;;;;2.57;2.27;;;;;;;17.87;72.39;97356.56;6158381;23;20185;-93
2022/06/11 14:12:50;;;;;;;2.43;2.23;;;;;;;16.08;72.06;97013.84;6142517;23;20146;-94
2022/06/11 14:15:51;;;;;;;2.00;1.90;;;;;;;22.13;72.50;98038.97;6015376;23;20210;-93
2022/06/11 14:20:55;;;;;;;2.40;2.20;;;;;;;19.34;71.96;97605.22;6153707;23;20238;-90
2022/06/11 14:23:22;;;;;;;2.23;2.03;;;;;;;22.14;72.26;98040.69;6105020;23;20190;-92
2022/06/11 14:25:56;;;;;;;2.20;2.10;;;;;;;19.58;72.07;97583.22;6153486;23;20186;-93
2022/06/11 14:28:44;;;;;;;2.27;2.10;;;;;;;22.15;72.23;98031.34;6153664;23;20155;-93
2022/06/11 14:31:11;;;;;;;3.00;2.20;;;;;;;17.37;71.89;97233.28;6121239;23;20202;-89
2022/06/11 14:34:09;;;;;;;2.30;2.10;;;;;;;18.69;71.91;97441.28;6150284;23;20169;-93
2022/06/11 14:36:36;;;;;;;3.00;2.10;;;;;;;19.09;71.93;97510.75;6122546;23;20186;-92
2022/06/11 14:39:19;;;;;;;2.00;1.90;;;;;;;16.99;72.03;97203.78;6075807;23;20172;-94
2022/06/11 14:42:21;;;;;;;2.03;1.93;;;;;;;17.58;72.56;97260.47;6144989;23;20210;-94
2022/06/11 14:47:49;;;;;;;2.13;2.03;;;;;;;17.96;72.17;97318.78;6153047;23;20183;-94
2022/06/11 14:50:44;;;;;;;2.73;2.00;;;;;;;22.14;72.49;98022.78;6128784;23;20166;-94
2022/06/11 14:53:39;;;;;;;2.43;2.23;;;;;;;22.14;72.56;98019.38;6153943;23;20163;-91
2022/06/11 14:56:21;;;;;;;2.30;2.10;;;;;;;22.14;72.49;98016.81;6128490;23;20175;-93
2022/06/11 14:59:27;;;;;;;2.43;2.23;;;;;;;22.14;72.48;98016.81;6126666;23;20163;-92
2022/06/11 15:02:06;;;;;;;2.10;2.00;;;;;;;22.15;72.61;98018.53;6128745;23;20193;-94
2022/06/11 15:04:57;;;;;;;2.87;1.97;;;;;;;22.14;72.40;98007.41;6128848;23;20147;-94
2022/06/11 15:10:24;;;;;;;2.40;2.20;;;;;;;20.87;72.46;97799.91;6174627;23;20186;-93
2022/06/11 15:12:51;;;;;;;2.47;2.37;;;;;;;22.15;72.38;98008.31;6134160;23;20166;-91
2022/06/11 15:15:35;;;;;;;2.10;2.00;;;;;;;19.76;72.13;97602.63;6183487;23;20226;-90
2022/06/11 15:18:25;;;;;;;2.33;2.13;;;;;;;22.16;72.34;98012.59;6158136;23;20190;-93
2022/06/11 15:21:04;;;;;;;2.27;2.07;;;;;;;19.26;72.33;97509.72;6158027;23;20174;-91
2022/06/11 15:23:46;;;;;;;2.17;2.07;;;;;;;17.00;72.26;97175.06;6140178;23;20150;-93
2022/06/11 15:26:29;;;;;;;2.00;1.90;;;;;;;18.24;72.08;97353.81;6137057;23;20182;-92
2022/06/11 15:29:07;;;;;;;3.23;2.20;;;;;;;22.15;72.41;98013.44;6158736;23;20178;-92
2022/06/11 15:31:37;;;;;;;2.30;2.20;;;;;;;19.13;72.43;97508.38;6157956;23;20169;-94
2022/06/11 15:39:27;;;;;;;2.30;2.20;;;;;;;18.02;72.34;97338.50;6182260;23;20195;-93
2022/06/11 15:42:15;;;;;;;2.20;1.90;;;;;;;17.36;72.09;97189.25;6110082;23;20159;-93
2022/06/11 15:44:43;;;;;;;2.20;2.00;;;;;;;19.19;72.21;97516.25;6157278;23;20182;-93
2022/06/11 15:58:06;;;;;;;2.33;2.17;;;;;;;22.14;72.35;98002.31;6301445;22;1345013;-94
2022/06/11 16:00:59;;;;;;;2.20;2.10;;;;;;;20.53;72.39;97722.03;6302474;22;20158;-91
2022/06/11 16:03:47;;;;;;;2.30;2.10;;;;;;;20.88;71.75;97842.53;6344794;22;20166;-92
2022/06/11 16:06:20;;;;;;;3.77;2.20;;;;;;;22.13;72.52;97999.69;6293241;22;20209;-93
2022/06/11 16:14:24;;;;;;;2.03;1.93;;;;;;;20.76;73.20;97846.31;6320637;22;20174;-91
2022/06/11 16:17:02;;;;;;;2.20;2.00;;;;;;;19.69;72.49;97569.19;6263914;22;20174;-91
2022/06/11 16:22:20;;;;;;;2.30;2.10;;;;;;;22.13;72.71;98000.56;6342011;22;20158;-93
2022/06/11 16:27:35;;;;;;;2.30;2.00;;;;;;;16.14;72.62;97000.59;6335619;22;20194;-93
2022/06/11 16:30:33;;;;;;;2.30;2.10;;;;;;;19.86;72.44;97614.00;6293035;22;20154;-94
2022/06/11 16:33:10;;;;;;;2.00;1.90;;;;;;;18.88;71.85;97461.53;6292954;22;20151;-92
2022/06/11 16:35:49;;;;;;;2.20;2.07;;;;;;;20.05;71.98;97654.72;6287132;22;20183;-94
2022/06/11 16:38:24;;;;;;;2.37;2.17;;;;;;;22.15;72.18;97993.81;6262498;22;20143;-92
2022/06/11 16:41:12;;;;;;;3.57;2.30;;;;;;;16.56;71.81;97068.34;6312811;22;20175;-91
2022/06/11 16:43:50;;;;;;;2.00;1.90;;;;;;;20.93;72.35;97804.41;6311780;22;20171;-92
2022/06/11 16:46:41;;;;;;;2.10;2.00;;;;;;;21.45;71.78;97921.38;6287328;22;20234;-93
2022/06/11 16:56:06;;;;;;;2.50;2.00;;;;;;;21.02;72.31;97805.59;6287284;22;20139;-92
2022/06/11 16:57:36;;;;;;;2.23;2.03;;;;;;;19.01;72.28;97485.00;6310088;22;20183;-93
2022/06/11 17:00:06;;;;;;;2.77;2.47;;;;;;;17.72;71.69;97259.34;6277763;22;20191;-93
2022/06/11 17:05:20;;;;;;;2.13;2.03;;;;;;;22.15;72.56;97993.81;6283699;22;20222;-90
2022/06/11 17:07:52;;;;;;;2.10;2.00;;;;;;;19.07;72.14;97531.06;6255078;22;20156;-94
2022/06/11 23:11:18;;;;;;;1.90;1.80;;;;;;;17.54;72.82;97331.41;6274074;22;20171;-91
2022/06/11 23:13:48;;;;;;;1.60;1.50;;;;;;;19.04;72.71;97570.84;6224170;22;20157;-93
2022/06/11 23:16:19;;;;;;;1.63;1.53;;;;;;;17.07;72.01;97275.19;6194312;22;20189;-91
2022/06/11 23:18:46;;;;;;;1.87;1.77;;;;;;;18.26;72.20;97470.88;6193582;22;20145;-93
2022/06/11 23:21:13;;;;;;;2.20;1.60;;;;;;;22.16;72.31;98112.44;6193690;22;20169;-92
2022/06/11 23:23:41;;;;;;;2.17;1.97;;;;;;;17.87;72.15;97360.75;6193609;22;20157;-91
2022/06/11 23:26:08;;;;;;;1.67;1.57;;;;;;;17.89;72.23;97354.94;6217713;22;20204;-93
2022/06/11 23:28:35;;;;;;;1.77;1.67;;;;;;;17.81;72.36;97324.94;6218349;22;20173;-94
2022/06/11 23:31:04;;;;;;;1.80;1.70;;;;;;;21.67;72.39;98035.53;6218539;22;20173;-94
2022/06/11 23:33:31;;;;;;;1.63;1.53;;;;;;;18.51;72.08;97494.00;6243580;22;20184;-92
2022/06/11 23:35:58;;;;;;;1.70;1.60;;;;;;;22.17;72.43;98088.59;6217724;22;20177;-94
2022/06/11 23:38:25;;;;;;;1.60;1.50;;;;;;;19.00;72.10;97552.03;6193663;22;20173;-94
2022/06/11 23:40:57;;;;;;;1.63;1.53;;;;;;;16.59;71.64;97152.16;6193462;22;20149;-91
2022/06/11 23:43:23;;;;;;;1.77;1.67;;;;;;;19.04;72.03;97581.88;6193619;22;20154;-92
2022/06/11 23:45:58;;;;;;;1.60;1.50;;;;;;;17.92;71.87;97387.25;6219652;22;20228;-94
2022/06/11 23:48:28;;;;;;;1.70;1.60;;;;;;;22.17;72.21;98091.16;6193453;22;20185;-93
2022/06/11 23:51:08;;;;;;;1.60;1.50;;;;;;;21.12;72.42;97919.25;6193654;22;20169;-90
2022/06/11 23:53:35;;;;;;;1.60;1.50;;;;;;;20.74;71.83;97866.69;6193673;22;20168;-94
2022/06/11 23:56:03;;;;;;;1.67;1.57;;;;;;;22.17;72.27;98086.03;6193103;22;20177;-92
2022/06/11 23:58:30;;;;;;;1.60;1.50;;;;;;;17.03;72.32;97204.78;6218494;22;20157;-93
